Airfield :
LOGIN :

Register | Disclaimer

   EN    FR    IT 

 










Legend :    VFR   Marginal VFR   IFR   Intensive IFR   Very Intensive IFR
Visi :
Ceiling :
>= 8 km
>= 3000ft
5 to 8 km
1000 to 3000 ft
1500m to 5 km
500 to 1000 ft
800 to 1500m
200 to 500 ft
< 800m
< 200 ft
Symbols :   Thunderstorms  Fog  Heavy snow  Heavy precipitations  Wind > 20 kt
SIGMETs :     Misc.  Thunderstorms  Icing  Turbulence  Mountain Waves  Volcanic Ashes






- Airport Elevation : 233 ft
- IATA code : REU


LERS - Reus Tarragona

CURRENT METAR :
  • 070900Z 12005KT 060V160 CAVOK 22/15 Q1016

EXPIRED METARs :
  • 070830Z VRB01KT CAVOK 23/15 Q1016
  • 070800Z VRB02KT CAVOK 20/14 Q1016
  • 070730Z VRB02KT 9000 FEW014 19/14 Q1016
  • 070700Z VRB01KT 7000 FEW010 18/14 Q1016
  • 070630Z VRB02KT 6000 FEW010 16/14 Q1015

TAF TAF LERS
Valid from the 07 at 09:00 until the 08 at 09:00 UTC


070800Z 0709/0809 13010KT 9999 BKN014 TX22/0712Z TN13/0806Z
BECMG 0718/0720 VRB03KT
BECMG 0807/0809 13010KT



MET'MAP, your aeronautical weather chart ! - Copyright ORBIFLY December 2007 - Disclaimer

ORBIFLY MET'MAP TEAM :

Programming & Development : Alexandra Zaïnal
Concept & original design : Baudouin d'Aumeries
Assistance for programming : Marc-Olivier Méhu
Technical & hardware support : Manuel Goepfert

Contact : metmap@orbifly.com




SOURCES & CREDITS :

   NOAA